Time;durP1;ratioP1;P1;durP2;ratioP2;P2;SDS_P1;SDS_P2;PMS_P1;PMS_P2;Temp;Humidity;BMP_temperature;BMP_pressure;BME280_temperature;BME280_humidity;BME280_pressure;Samples;Min_cycle;Max_cycle;Signal;HPM_P1;HPM_P2
2022/07/23 00:00:18;;;;;;;;;22.00;20.25;;;;;24.78;58.40;101210.53;2101683;27;47442;-62
2022/07/23 00:01:19;;;;;;;;;25.40;23.60;;;;;24.80;58.85;101214.00;2103174;28;47556;-61
2022/07/23 00:02:20;;;;;;;;;26.20;25.80;;;;;24.81;58.79;101209.41;2098705;27;47899;-61
2022/07/23 00:03:20;;;;;;;;;26.00;24.25;;;;;24.80;58.59;101210.41;2119267;27;48263;-61
2022/07/23 00:04:20;;;;;;;;;24.00;23.00;;;;;24.77;58.44;101205.19;2116099;27;47421;-61
2022/07/23 00:05:21;;;;;;;;;32.75;30.50;;;;;24.74;58.93;101209.00;2119607;27;47946;-60
2022/07/23 00:06:22;;;;;;;;;24.50;23.00;;;;;24.73;58.54;101215.41;2118904;27;47140;-60
2022/07/23 00:07:22;;;;;;;;;20.80;20.60;;;;;24.73;58.77;101209.09;2120169;27;47733;-61
2022/07/23 00:08:23;;;;;;;;;15.75;15.75;;;;;24.74;58.77;101218.97;2119025;27;47470;-60
2022/07/23 00:09:23;;;;;;;;;23.00;22.75;;;;;24.73;58.22;101212.69;2120773;27;47615;-60
2022/07/23 00:10:23;;;;;;;;;19.25;17.75;;;;;24.75;58.22;101212.56;2118006;27;47481;-61
2022/07/23 00:11:24;;;;;;;;;17.75;17.75;;;;;24.75;58.68;101209.84;2120735;27;47925;-59
2022/07/23 00:12:24;;;;;;;;;22.25;20.25;;;;;24.75;58.38;101210.72;2110384;27;47145;-61
2022/07/23 00:13:25;;;;;;;;;22.00;22.00;;;;;24.77;58.22;101213.31;2111679;27;47441;-61
2022/07/23 00:14:25;;;;;;;;;23.25;22.00;;;;;24.77;58.44;101208.75;2119282;27;47679;-61
2022/07/23 00:15:26;;;;;;;;;17.50;17.50;;;;;24.78;58.08;101207.81;2120130;27;47315;-61
2022/07/23 00:16:26;;;;;;;;;19.25;18.50;;;;;24.78;58.51;101207.81;2115911;27;47112;-60
2022/07/23 00:17:26;;;;;;;;;20.00;20.00;;;;;24.79;58.57;101211.38;2120596;27;47409;-61
2022/07/23 00:18:27;;;;;;;;;19.50;19.50;;;;;24.81;58.36;101212.13;2118963;27;47840;-61
2022/07/23 00:19:28;;;;;;;;;17.25;17.25;;;;;24.81;58.16;101215.72;2121221;27;47485;-61
2022/07/23 00:20:29;;;;;;;;;16.80;16.20;;;;;24.82;58.46;101211.16;2119132;27;47765;-61
2022/07/23 00:21:29;;;;;;;;;20.25;20.25;;;;;24.82;57.92;101209.31;2120934;27;47391;-62
2022/07/23 00:22:30;;;;;;;;;19.75;18.50;;;;;24.83;58.33;101215.59;2118862;27;47617;-61
2022/07/23 00:23:30;;;;;;;;;24.00;22.00;;;;;24.83;58.41;101213.75;2113049;27;45217;-61
2022/07/23 00:24:31;;;;;;;;;21.25;20.25;;;;;24.83;58.01;101212.88;2096533;28;46384;-61
2022/07/23 00:25:32;;;;;;;;;12.00;12.00;;;;;24.84;58.34;101209.19;2097898;28;47804;-61
2022/07/23 00:26:32;;;;;;;;;25.25;23.75;;;;;24.85;58.42;101206.34;2118040;27;47994;-61
2022/07/23 00:27:32;;;;;;;;;20.75;20.00;;;;;24.85;57.87;101211.78;2122377;27;47666;-61
2022/07/23 00:28:33;;;;;;;;;18.00;17.50;;;;;24.84;58.21;101207.34;2109904;27;47751;-61
2022/07/23 00:29:34;;;;;;;;;20.25;20.25;;;;;24.85;58.42;101211.78;2108439;27;47462;-61
2022/07/23 00:30:34;;;;;;;;;23.25;22.75;;;;;24.85;58.24;101205.50;2117575;27;47878;-61
2022/07/23 00:31:34;;;;;;;;;21.00;20.25;;;;;24.83;58.34;101207.47;2113116;27;47084;-62
2022/07/23 00:32:52;;;;;;;;;19.50;19.50;;;;;24.80;58.49;101204.97;2107684;27;47047;-61
2022/07/23 00:33:56;;;;;;;;;22.00;22.00;;;;;24.78;58.23;101202.38;2102714;28;47667;-61
2022/07/23 00:34:56;;;;;;;;;26.00;23.80;;;;;24.74;58.76;101200.84;2102867;27;47667;-61
2022/07/23 00:35:57;;;;;;;;;23.50;22.50;;;;;24.72;58.87;101202.81;2099847;28;47643;-61
2022/07/23 00:36:57;;;;;;;;;24.25;23.00;;;;;24.69;58.55;101203.03;2101754;28;47314;-61
2022/07/23 00:37:59;;;;;;;;;24.75;23.75;;;;;24.66;59.20;101208.72;2120496;27;47711;-61
2022/07/23 00:38:59;;;;;;;;;25.20;24.80;;;;;24.63;59.19;101204.34;2116094;27;47591;-61
2022/07/23 00:40:00;;;;;;;;;24.25;20.75;;;;;24.62;58.67;101207.16;2107517;27;48005;-60
2022/07/23 00:41:00;;;;;;;;;26.00;23.75;;;;;24.60;59.26;101207.28;2112583;27;47713;-61
2022/07/23 00:42:00;;;;;;;;;28.50;27.00;;;;;24.58;59.24;101200.25;2120211;27;47501;-61
2022/07/23 00:43:01;;;;;;;;;21.25;20.50;;;;;24.56;59.08;101199.50;2121456;27;47886;-61
2022/07/23 00:44:22;;;;;;;;;22.25;22.25;;;;;24.55;59.45;101200.47;2120659;27;47630;-61
2022/07/23 00:45:23;;;;;;;;;23.00;21.80;;;;;24.54;59.52;101206.88;2121072;27;47502;-61
2022/07/23 00:46:24;;;;;;;;;23.00;23.00;;;;;24.53;59.49;101202.44;2117514;27;47955;-60
2022/07/23 00:47:25;;;;;;;;;22.40;21.80;;;;;24.51;59.55;101202.50;2121439;27;47393;-60
2022/07/23 00:48:26;;;;;;;;;23.00;22.00;;;;;24.52;59.17;101206.09;2120334;27;47471;-61
2022/07/23 00:49:29;;;;;;;;;21.75;21.75;;;;;24.50;59.52;101199.91;2121296;27;47113;-62
2022/07/23 00:50:29;;;;;;;;;21.20;19.40;;;;;24.49;59.29;101201.75;2116578;27;47682;-61
2022/07/23 00:51:30;;;;;;;;;20.50;19.25;;;;;24.50;59.37;101197.19;2117403;27;47169;-61
2022/07/23 00:52:31;;;;;;;;;22.00;20.75;;;;;24.51;59.77;101201.66;2118752;27;47827;-61
2022/07/23 00:53:32;;;;;;;;;23.60;23.60;;;;;24.52;59.22;101193.44;2121757;27;48259;-61
2022/07/23 00:54:32;;;;;;;;;24.50;20.50;;;;;24.53;59.36;101195.16;2119604;27;48164;-61
2022/07/23 00:55:33;;;;;;;;;18.00;18.00;;;;;24.54;59.66;101196.03;2121699;27;47330;-61
2022/07/23 00:56:34;;;;;;;;;19.25;18.75;;;;;24.55;59.25;101200.47;2119367;27;46786;-62
2022/07/23 00:57:35;;;;;;;;;19.60;17.80;;;;;24.57;59.24;101196.66;2116128;27;48065;-62
2022/07/23 00:58:38;;;;;;;;;19.80;19.00;;;;;24.57;58.87;101196.66;2092554;28;47659;-60
2022/07/23 00:59:39;;;;;;;;;24.20;23.20;;;;;24.59;59.02;101193.84;2094597;27;47823;-61
2022/07/23 01:00:40;;;;;;;;;22.00;21.20;;;;;24.60;58.88;101198.28;2118126;27;47890;-61
2022/07/23 01:01:41;;;;;;;;;22.00;21.50;;;;;24.58;59.26;101192.09;2122274;27;47611;-62
2022/07/23 01:02:42;;;;;;;;;22.80;22.80;;;;;24.58;59.02;101189.38;2119597;27;46138;-61
2022/07/23 01:03:42;;;;;;;;;27.50;27.50;;;;;24.58;59.04;101200.25;2121859;27;47633;-60
2022/07/23 01:04:43;;;;;;;;;23.50;23.50;;;;;24.58;58.83;101201.09;2118785;27;47524;-61
2022/07/23 01:05:44;;;;;;;;;24.75;24.50;;;;;24.58;59.12;101192.09;2117183;27;45103;-61
2022/07/23 01:06:45;;;;;;;;;17.60;17.40;;;;;24.56;58.92;101203.06;2119452;27;47607;-62
2022/07/23 01:07:45;;;;;;;;;20.25;20.25;;;;;24.56;59.17;101196.78;2121873;27;47893;-61
2022/07/23 01:08:46;;;;;;;;;21.75;21.00;;;;;24.56;58.94;101196.78;2120023;27;45010;-61
2022/07/23 01:09:47;;;;;;;;;19.50;19.25;;;;;24.54;58.91;101194.19;2121986;27;47612;-62
2022/07/23 01:10:48;;;;;;;;;21.25;21.00;;;;;24.54;58.87;101190.59;2119633;27;47461;-61
2022/07/23 01:11:51;;;;;;;;;22.80;20.20;;;;;24.52;59.04;101197.97;2121626;27;47795;-60
2022/07/23 01:12:51;;;;;;;;;22.20;21.60;;;;;24.49;58.99;101199.06;2119096;27;47879;-62
2022/07/23 01:13:51;;;;;;;;;22.25;17.25;;;;;24.47;59.13;101190.16;2120280;27;47919;-61
2022/07/23 01:14:57;;;;;;;;;19.50;19.25;;;;;24.48;58.95;101193.75;2120245;27;47616;-61
2022/07/23 01:15:57;;;;;;;;;21.20;19.00;;;;;24.47;58.70;101195.59;2120174;27;47607;-61
2022/07/23 01:16:57;;;;;;;;;18.75;18.75;;;;;24.48;58.98;101191.91;2120658;27;47914;-62
2022/07/23 01:17:58;;;;;;;;;22.75;21.50;;;;;24.48;58.52;101191.03;2111276;27;47365;-61
2022/07/23 01:18:58;;;;;;;;;23.25;21.75;;;;;24.48;58.52;101194.59;2112327;27;47510;-62
2022/07/23 01:19:59;;;;;;;;;22.25;20.25;;;;;24.47;58.62;101192.88;2111252;27;47119;-60
2022/07/23 01:20:59;;;;;;;;;23.50;22.50;;;;;24.45;59.09;101192.13;2100301;27;47376;-61
2022/07/23 01:22:03;;;;;;;;;18.25;18.25;;;;;24.43;59.42;101196.78;2104788;27;47696;-61
2022/07/23 01:23:03;;;;;;;;;20.20;20.20;;;;;24.43;58.80;101198.66;2117350;27;47649;-61
2022/07/23 01:24:04;;;;;;;;;22.25;20.75;;;;;24.38;59.25;101188.09;2113752;27;47028;-61
2022/07/23 01:25:06;;;;;;;;;19.60;19.60;;;;;24.36;59.16;101190.94;2120731;27;47130;-62
2022/07/23 01:26:06;;;;;;;;;20.20;16.60;;;;;24.34;59.01;101192.88;2109841;27;48439;-62
2022/07/23 01:27:06;;;;;;;;;18.00;18.00;;;;;24.34;59.46;101192.88;2111851;27;47796;-61
2022/07/23 01:28:07;;;;;;;;;19.50;19.50;;;;;24.34;58.88;101192.03;2120025;27;47988;-60
2022/07/23 01:29:07;;;;;;;;;21.50;20.50;;;;;24.33;58.87;101198.44;2120803;27;47967;-61
2022/07/23 01:30:08;;;;;;;;;22.00;20.50;;;;;24.32;59.05;101192.13;2114521;27;47748;-61
2022/07/23 01:31:09;;;;;;;;;20.60;20.40;;;;;24.32;59.48;101188.56;2120338;27;47817;-62
2022/07/23 01:32:09;;;;;;;;;21.25;19.75;;;;;24.32;59.40;101185.84;2119232;27;47123;-62
2022/07/23 01:33:10;;;;;;;;;19.25;18.00;;;;;24.33;59.17;101193.00;2110397;27;47606;-61
2022/07/23 01:34:10;;;;;;;;;20.75;20.75;;;;;24.33;58.89;101184.88;2111810;27;48023;-60
2022/07/23 01:35:11;;;;;;;;;19.50;19.50;;;;;24.34;58.87;101190.19;2119000;27;47219;-62
2022/07/23 01:36:12;;;;;;;;;20.75;20.50;;;;;24.36;58.56;101193.63;2119801;27;47316;-61
2022/07/23 01:37:12;;;;;;;;;18.25;17.75;;;;;24.38;58.91;101193.53;2111015;27;47360;-60
2022/07/23 01:38:12;;;;;;;;;19.00;19.00;;;;;24.39;58.97;101188.97;2110908;27;47786;-61
2022/07/23 01:39:13;;;;;;;;;48.75;41.50;;;;;24.41;59.16;101187.03;2091134;28;48084;-60
2022/07/23 01:40:13;;;;;;;;;43.00;35.25;;;;;24.43;59.33;101201.34;2093611;28;47583;-61
2022/07/23 01:41:14;;;;;;;;;22.50;22.25;;;;;24.42;59.15;101192.34;2120507;27;47134;-62
2022/07/23 01:42:14;;;;;;;;;22.25;21.00;;;;;24.41;59.13;101185.19;2118330;27;47933;-61
2022/07/23 01:43:14;;;;;;;;;20.50;19.00;;;;;24.42;58.98;101194.19;2120583;27;47930;-62
2022/07/23 01:44:15;;;;;;;;;20.50;20.50;;;;;24.44;59.07;101189.53;2118957;27;47031;-61
2022/07/23 01:45:16;;;;;;;;;22.25;21.00;;;;;24.43;58.75;101191.38;2121259;27;47571;-61
2022/07/23 01:46:16;;;;;;;;;20.00;19.00;;;;;24.44;59.00;101189.53;2113027;27;47794;-60
2022/07/23 01:47:16;;;;;;;;;21.00;21.00;;;;;24.45;59.37;101186.69;2116313;27;47568;-61
2022/07/23 01:48:17;;;;;;;;;22.50;21.50;;;;;24.46;59.36;101191.13;2119078;27;47486;-61
2022/07/23 01:49:17;;;;;;;;;23.00;22.50;;;;;24.47;58.93;101194.72;2119881;27;47797;-62
2022/07/23 01:50:18;;;;;;;;;19.25;19.25;;;;;24.47;59.33;101194.72;2119899;27;47116;-61
2022/07/23 01:51:18;;;;;;;;;20.50;20.50;;;;;24.47;59.54;101197.44;2110622;27;45145;-62
2022/07/23 01:52:19;;;;;;;;;22.25;21.00;;;;;24.45;59.49;101192.13;2093173;28;47276;-61
2022/07/23 01:53:19;;;;;;;;;18.75;18.00;;;;;24.46;59.21;101193.00;2108539;27;47669;-61
2022/07/23 01:54:19;;;;;;;;;19.00;19.00;;;;;24.47;59.05;101189.28;2116681;27;47872;-62
2022/07/23 01:55:20;;;;;;;;;23.50;21.25;;;;;24.48;58.86;101193.75;2119531;27;47982;-61
2022/07/23 01:56:20;;;;;;;;;22.50;21.75;;;;;24.48;58.92;101200.03;2119579;27;47372;-61
2022/07/23 01:57:21;;;;;;;;;23.50;23.50;;;;;24.47;58.86;101189.28;2121384;27;46316;-62
2022/07/23 01:58:22;;;;;;;;;21.25;21.25;;;;;24.46;59.29;101185.72;2114537;27;47871;-61
2022/07/23 01:59:22;;;;;;;;;18.25;17.50;;;;;24.45;59.43;101189.41;2118414;27;47126;-62
2022/07/23 02:00:23;;;;;;;;;22.25;21.75;;;;;24.44;59.45;101187.69;2120287;27;48162;-62
2022/07/23 02:01:23;;;;;;;;;23.75;23.00;;;;;24.45;59.23;101183.13;2117499;27;47153;-61
2022/07/23 02:02:23;;;;;;;;;21.50;19.50;;;;;24.45;59.23;101183.97;2107338;27;46943;-61
2022/07/23 02:03:24;;;;;;;;;24.50;24.50;;;;;24.47;59.11;101181.16;2116159;27;47067;-61
2022/07/23 02:04:25;;;;;;;;;23.25;21.50;;;;;24.49;59.14;101185.47;2115229;27;47197;-61
2022/07/23 02:05:28;;;;;;;;;23.00;20.00;;;;;24.49;59.36;101188.19;2095693;28;46267;-61
2022/07/23 02:06:28;;;;;;;;;21.40;21.40;;;;;24.49;59.25;101181.91;2098941;27;46882;-62
2022/07/23 02:07:29;;;;;;;;;21.00;20.00;;;;;24.49;59.27;101182.78;2120930;27;47261;-62
2022/07/23 02:08:29;;;;;;;;;25.75;21.50;;;;;24.50;59.39;101187.22;2118698;27;48049;-62
2022/07/23 02:09:30;;;;;;;;;24.00;24.00;;;;;24.49;59.34;101181.91;2105714;27;47674;-61
2022/07/23 02:10:30;;;;;;;;;20.00;20.00;;;;;24.49;59.52;101187.34;2106626;27;47865;-62
2022/07/23 02:11:31;;;;;;;;;20.25;20.25;;;;;24.49;59.54;101182.78;2121039;27;47341;-61
2022/07/23 02:12:31;;;;;;;;;21.25;21.25;;;;;24.50;59.16;101180.94;2118964;27;48271;-61
2022/07/23 02:13:32;;;;;;;;;23.25;21.00;;;;;24.51;59.21;101178.09;2121660;27;47654;-61
2022/07/23 02:14:32;;;;;;;;;21.00;18.50;;;;;24.52;59.24;101181.69;2119265;27;47671;-61
2022/07/23 02:15:33;;;;;;;;;21.75;21.50;;;;;24.54;58.64;101180.59;2121290;27;47394;-62
2022/07/23 02:16:34;;;;;;;;;20.20;20.20;;;;;24.54;58.79;101174.31;2114867;27;48248;-61
2022/07/23 02:17:34;;;;;;;;;17.40;17.00;;;;;24.55;59.00;101176.06;2106220;27;47456;-62
2022/07/23 02:18:35;;;;;;;;;18.25;17.25;;;;;24.55;59.06;101173.34;2107777;27;47134;-60
2022/07/23 02:19:35;;;;;;;;;18.25;18.00;;;;;24.56;59.20;101177.78;2104842;27;47674;-61
2022/07/23 02:20:38;;;;;;;;;21.75;21.75;;;;;24.55;58.76;101179.63;2106917;27;47400;-61
2022/07/23 02:21:38;;;;;;;;;22.60;20.00;;;;;24.54;59.39;101179.75;2111920;27;47673;-62
2022/07/23 02:22:39;;;;;;;;;21.50;19.50;;;;;24.54;59.19;101187.88;2107709;27;45708;-61
2022/07/23 02:23:39;;;;;;;;;18.25;18.25;;;;;24.52;58.94;101188.00;2112884;27;47087;-62
2022/07/23 02:24:39;;;;;;;;;23.00;23.00;;;;;24.50;59.26;101191.78;2113909;27;47788;-60
2022/07/23 02:25:40;;;;;;;;;22.25;21.00;;;;;24.48;59.48;101191.91;2123274;27;47799;-62
2022/07/23 02:26:40;;;;;;;;;21.50;19.25;;;;;24.46;59.73;101193.84;2120445;27;47925;-61
2022/07/23 02:27:41;;;;;;;;;20.75;20.75;;;;;24.42;59.23;101186.94;2102919;28;48279;-61
2022/07/23 02:28:41;;;;;;;;;23.75;21.50;;;;;24.40;59.68;101191.59;2101363;28;47033;-62
2022/07/23 02:29:42;;;;;;;;;23.75;23.00;;;;;24.40;59.57;101196.16;2121191;27;47661;-60
2022/07/23 02:30:42;;;;;;;;;26.00;24.50;;;;;24.37;59.50;101189.09;2111156;27;47847;-61
2022/07/23 02:31:44;;;;;;;;;24.25;23.25;;;;;24.36;59.64;101196.34;2105875;27;47262;-62
2022/07/23 02:32:44;;;;;;;;;21.60;20.40;;;;;24.35;59.32;101191.91;2116197;27;47795;-60
2022/07/23 02:33:44;;;;;;;;;23.75;21.00;;;;;24.34;59.80;101190.19;2121534;27;47599;-61
2022/07/23 02:34:45;;;;;;;;;22.50;21.50;;;;;24.33;59.66;101193.88;2099968;28;47201;-62
2022/07/23 02:35:45;;;;;;;;;20.50;20.50;;;;;24.34;59.52;101197.44;2103405;28;47144;-62
2022/07/23 02:36:45;;;;;;;;;23.25;20.50;;;;;24.34;59.65;101192.88;2119228;27;47471;-62
2022/07/23 02:37:46;;;;;;;;;21.75;19.75;;;;;24.35;59.33;101196.47;2118591;27;47531;-62
2022/07/23 02:38:46;;;;;;;;;20.00;19.75;;;;;24.36;59.65;101199.06;2118453;27;47920;-61
2022/07/23 02:39:48;;;;;;;;;20.00;19.25;;;;;24.38;59.49;101193.53;2113881;27;47828;-62
2022/07/23 02:40:48;;;;;;;;;22.20;21.60;;;;;24.40;59.28;101201.59;2115903;27;47390;-61
2022/07/23 02:41:48;;;;;;;;;27.00;26.25;;;;;24.40;59.38;101198.88;2121040;27;47988;-61
2022/07/23 02:42:49;;;;;;;;;23.75;22.00;;;;;24.40;59.26;101202.44;2105952;27;47956;-61
2022/07/23 02:43:49;;;;;;;;;25.00;24.75;;;;;24.40;59.12;101202.44;2111355;27;47915;-61
2022/07/23 02:44:51;;;;;;;;;21.00;20.50;;;;;24.38;59.63;101207.09;2120175;27;47437;-62
2022/07/23 02:45:52;;;;;;;;;21.60;20.20;;;;;24.39;59.04;101203.41;2120391;27;47379;-62
2022/07/23 02:46:52;;;;;;;;;21.00;21.00;;;;;24.40;59.09;101199.75;2119663;27;47083;-59
2022/07/23 02:47:52;;;;;;;;;23.75;22.25;;;;;24.41;59.39;101203.31;2120237;27;47880;-60
2022/07/23 02:48:53;;;;;;;;;25.50;22.50;;;;;24.41;59.19;101208.75;2115726;27;47764;-61
2022/07/23 02:49:53;;;;;;;;;24.00;21.00;;;;;24.41;59.54;101206.03;2110747;27;47947;-62
2022/07/23 02:50:56;;;;;;;;;25.00;23.00;;;;;24.38;59.41;101206.22;2102765;28;47440;-62
2022/07/23 02:51:56;;;;;;;;;26.40;23.60;;;;;24.38;59.64;101207.09;2110486;27;47477;-61
2022/07/23 02:52:57;;;;;;;;;22.00;21.25;;;;;24.36;59.62;101212.63;2120757;27;47454;-62
2022/07/23 02:53:57;;;;;;;;;27.00;24.00;;;;;24.36;59.41;101206.34;2119604;27;47310;-62
2022/07/23 02:54:57;;;;;;;;;26.75;26.75;;;;;24.35;59.79;101201.88;2116991;27;47986;-62
2022/07/23 02:55:58;;;;;;;;;29.00;27.00;;;;;24.34;59.72;101208.28;2093500;28;47424;-61
2022/07/23 02:56:58;;;;;;;;;28.25;27.00;;;;;24.33;59.80;101199.28;2094084;28;47581;-62
2022/07/23 02:57:58;;;;;;;;;25.00;23.50;;;;;24.33;60.27;101199.28;2104595;27;47486;-62
2022/07/23 02:58:59;;;;;;;;;29.25;27.25;;;;;24.32;59.80;101208.41;2109969;27;47947;-60
2022/07/23 02:59:59;;;;;;;;;27.00;27.00;;;;;24.32;59.67;101204.84;2119860;27;47969;-62
2022/07/23 03:00:59;;;;;;;;;26.00;26.00;;;;;24.31;60.20;101206.69;2120250;27;47506;-62
2022/07/23 03:02:00;;;;;;;;;25.75;24.50;;;;;24.30;59.85;101210.38;2119519;27;47999;-60
2022/07/23 03:03:00;;;;;;;;;26.75;26.00;;;;;24.30;60.07;101212.22;2120446;27;47878;-62
2022/07/23 03:04:01;;;;;;;;;27.75;27.00;;;;;24.28;60.08;101211.44;2120027;27;47634;-62
2022/07/23 03:05:01;;;;;;;;;24.00;23.50;;;;;24.26;60.40;101211.50;2117159;27;47567;-62
2022/07/23 03:06:02;;;;;;;;;23.75;22.25;;;;;24.26;59.90;101214.22;2118588;27;47386;-61
2022/07/23 03:07:02;;;;;;;;;23.75;22.50;;;;;24.27;60.37;101221.41;2118992;27;47358;-61
2022/07/23 03:08:02;;;;;;;;;22.75;21.50;;;;;24.28;60.24;101217.72;2109827;27;47342;-62
2022/07/23 03:09:04;;;;;;;;;23.50;23.25;;;;;24.29;60.13;101222.16;2108455;27;47077;-61
2022/07/23 03:10:05;;;;;;;;;24.80;22.40;;;;;24.31;60.10;101220.25;2119747;27;47866;-62
2022/07/23 03:11:10;;;;;;;;;23.75;22.50;;;;;24.32;60.47;101215.69;2117384;27;47957;-61
2022/07/23 03:12:11;;;;;;;;;20.60;20.60;;;;;24.34;60.50;101217.31;2119398;27;47974;-62
2022/07/23 03:13:11;;;;;;;;;25.50;21.50;;;;;24.36;60.39;101220.78;2121016;27;47958;-61
2022/07/23 03:14:13;;;;;;;;;23.75;22.50;;;;;24.40;60.55;101224.16;2114121;27;48061;-61
2022/07/23 03:15:13;;;;;;;;;21.80;21.20;;;;;24.42;60.03;101224.03;2101782;28;47948;-62
2022/07/23 03:16:13;;;;;;;;;25.50;24.25;;;;;24.43;60.54;101221.22;2099501;27;47533;-62
2022/07/23 03:17:14;;;;;;;;;21.00;19.50;;;;;24.45;60.10;101218.38;2119140;27;47356;-61
2022/07/23 03:18:14;;;;;;;;;19.25;18.50;;;;;24.46;59.98;101225.53;2117802;27;47792;-61
2022/07/23 03:19:15;;;;;;;;;26.25;26.25;;;;;24.47;60.05;101228.16;2118864;27;47351;-62
2022/07/23 03:20:15;;;;;;;;;22.50;22.50;;;;;24.48;60.41;101231.72;2121242;27;47605;-62
2022/07/23 03:21:17;;;;;;;;;24.25;22.50;;;;;24.48;60.01;101234.44;2121425;27;47516;-61
2022/07/23 03:22:17;;;;;;;;;25.20;24.80;;;;;24.47;59.76;101230.00;2124031;27;47559;-61
2022/07/23 03:23:17;;;;;;;;;23.75;22.25;;;;;24.46;60.19;101231.84;2118872;27;47804;-62
2022/07/23 03:24:18;;;;;;;;;22.50;22.50;;;;;24.45;59.75;101231.94;2118608;27;47958;-62
2022/07/23 03:25:18;;;;;;;;;18.50;18.50;;;;;24.43;59.78;101229.34;2120452;27;47450;-61
2022/07/23 03:26:19;;;;;;;;;21.75;21.00;;;;;24.42;59.41;101232.19;2092469;28;46877;-61
2022/07/23 03:27:24;;;;;;;;;22.00;21.75;;;;;24.40;59.05;101231.44;2094246;28;46695;-62
2022/07/23 03:28:25;;;;;;;;;20.80;20.20;;;;;24.37;59.33;101232.50;2119399;27;47609;-62
2022/07/23 03:29:25;;;;;;;;;22.50;22.00;;;;;24.35;59.24;101238.03;2120992;27;47620;-61
2022/07/23 03:30:25;;;;;;;;;19.75;19.50;;;;;24.33;59.37;101237.28;2119235;27;47538;-62
2022/07/23 03:31:26;;;;;;;;;25.50;23.00;;;;;24.32;59.23;101240.09;2120506;27;47798;-61
2022/07/23 03:32:26;;;;;;;;;21.25;21.25;;;;;24.31;59.18;101238.38;2119218;27;47474;-61
2022/07/23 03:33:27;;;;;;;;;24.75;20.75;;;;;24.29;59.44;101232.16;2120537;27;47928;-60
2022/07/23 03:34:27;;;;;;;;;17.75;17.75;;;;;24.27;59.38;101239.53;2118962;27;47415;-62
2022/07/23 03:35:28;;;;;;;;;21.75;20.75;;;;;24.26;59.37;101230.50;2120524;27;47532;-61
2022/07/23 03:36:28;;;;;;;;;20.75;20.75;;;;;24.25;59.79;101234.19;2106679;27;47346;-61
2022/07/23 03:37:29;;;;;;;;;26.00;24.00;;;;;24.24;59.60;101237.00;2110924;27;47812;-61
2022/07/23 03:38:29;;;;;;;;;19.00;19.00;;;;;24.23;59.64;101238.84;2093105;28;47922;-59
2022/07/23 03:39:29;;;;;;;;;21.75;19.75;;;;;24.22;59.49;101233.53;2093981;28;47510;-60
2022/07/23 03:40:30;;;;;;;;;21.50;21.50;;;;;24.21;59.68;101238.09;2091927;28;47398;-60
2022/07/23 03:41:30;;;;;;;;;22.25;20.75;;;;;24.20;59.61;101233.66;2094203;28;47537;-60
2022/07/23 03:42:31;;;;;;;;;21.25;18.50;;;;;24.19;59.58;101231.06;2118398;27;47011;-59
2022/07/23 03:43:31;;;;;;;;;27.50;24.50;;;;;24.18;59.54;101234.75;2111792;27;47344;-61
2022/07/23 03:44:32;;;;;;;;;20.00;19.00;;;;;24.17;59.96;101241.16;2109932;27;47685;-61
2022/07/23 03:45:32;;;;;;;;;21.25;21.25;;;;;24.15;59.46;101232.25;2120342;27;48050;-60
2022/07/23 03:46:33;;;;;;;;;18.25;15.75;;;;;24.14;59.58;101234.09;2119687;27;47748;-60
2022/07/23 03:47:33;;;;;;;;;24.00;24.00;;;;;24.13;59.31;101232.34;2119931;27;47940;-61
2022/07/23 03:48:34;;;;;;;;;18.00;18.00;;;;;24.11;59.74;101223.44;2118272;27;47495;-62
2022/07/23 03:49:34;;;;;;;;;27.00;24.75;;;;;24.10;59.77;101239.84;2120459;27;47462;-61
2022/07/23 03:50:35;;;;;;;;;24.75;21.00;;;;;24.10;59.68;101239.84;2119713;27;47624;-61
2022/07/23 03:51:36;;;;;;;;;22.40;21.00;;;;;24.08;59.75;101243.53;2121213;27;47849;-61
2022/07/23 03:52:36;;;;;;;;;19.25;17.50;;;;;24.08;59.86;101240.81;2109090;27;47113;-61
2022/07/23 03:53:37;;;;;;;;;18.50;18.25;;;;;24.08;59.66;101245.38;2106347;27;47676;-62
2022/07/23 03:54:37;;;;;;;;;21.50;20.50;;;;;24.08;59.61;101248.94;2118588;27;47579;-61
2022/07/23 03:55:37;;;;;;;;;21.00;20.25;;;;;24.08;59.54;101245.38;2118819;27;47464;-61
2022/07/23 03:56:38;;;;;;;;;20.50;19.75;;;;;24.06;59.47;101245.47;2114251;27;47469;-60
2022/07/23 03:57:38;;;;;;;;;23.25;20.25;;;;;24.05;59.65;101245.59;2120386;27;47363;-62
2022/07/23 03:58:39;;;;;;;;;19.00;18.00;;;;;24.04;59.58;101244.72;2115612;27;47463;-57
2022/07/23 03:59:39;;;;;;;;;19.00;19.00;;;;;24.03;59.52;101242.13;2116890;27;51488;-62
2022/07/23 04:00:40;;;;;;;;;19.75;17.75;;;;;24.02;59.42;101234.97;2108510;27;47098;-62
2022/07/23 04:01:40;;;;;;;;;22.25;21.00;;;;;24.01;59.34;101235.91;2113435;27;47624;-60
2022/07/23 04:02:40;;;;;;;;;21.75;20.00;;;;;24.00;59.44;101239.59;2119854;27;47634;-62
2022/07/23 04:03:41;;;;;;;;;20.50;19.50;;;;;23.98;59.26;101246.97;2122316;27;48129;-61
2022/07/23 04:04:41;;;;;;;;;19.75;19.50;;;;;23.98;59.68;101246.97;2120177;27;47586;-61
2022/07/23 04:05:42;;;;;;;;;20.75;20.00;;;;;23.95;59.33;101244.47;2122191;27;47367;-61
2022/07/23 04:06:42;;;;;;;;;19.75;17.75;;;;;23.95;59.55;101247.19;2120474;27;47534;-61
2022/07/23 04:07:42;;;;;;;;;19.75;19.50;;;;;23.94;59.61;101242.75;2113224;27;47181;-62
2022/07/23 04:08:43;;;;;;;;;17.75;17.50;;;;;23.93;59.75;101252.72;2103074;28;47491;-62
2022/07/23 04:09:44;;;;;;;;;16.50;16.50;;;;;23.91;59.59;101257.38;2113511;27;46973;-61
2022/07/23 04:10:44;;;;;;;;;20.80;18.20;;;;;23.91;59.38;101249.25;2119938;27;47759;-61
2022/07/23 04:11:45;;;;;;;;;21.00;20.75;;;;;23.91;59.40;101251.97;2121772;27;47229;-62
2022/07/23 04:12:45;;;;;;;;;17.25;17.25;;;;;23.91;59.81;101256.53;2120327;27;45963;-61
2022/07/23 04:13:45;;;;;;;;;23.50;23.50;;;;;23.90;59.40;101252.06;2113469;27;47701;-61
2022/07/23 04:14:46;;;;;;;;;20.50;19.50;;;;;23.89;59.29;101258.47;2111572;27;47809;-60
2022/07/23 04:15:46;;;;;;;;;16.50;16.50;;;;;23.88;59.54;101256.72;2122348;27;47415;-61
2022/07/23 04:16:47;;;;;;;;;21.25;21.25;;;;;23.88;59.97;101254.88;2107233;27;47128;-62
2022/07/23 04:17:47;;;;;;;;;20.00;19.75;;;;;23.88;59.76;101251.28;2113295;27;48172;-61
2022/07/23 04:18:47;;;;;;;;;19.00;18.25;;;;;23.90;59.66;101260.22;2116305;27;47564;-61
2022/07/23 04:19:48;;;;;;;;;20.50;18.50;;;;;23.90;59.69;101260.22;2122365;27;48050;-61
2022/07/23 04:20:48;;;;;;;;;16.25;16.00;;;;;23.90;59.41;101254.78;2120375;27;47620;-61
2022/07/23 04:21:48;;;;;;;;;16.50;16.50;;;;;23.89;59.03;101244.94;2122352;27;47871;-61
2022/07/23 04:22:49;;;;;;;;;15.00;15.00;;;;;23.89;59.34;101251.22;2107837;27;47647;-61
2022/07/23 04:23:49;;;;;;;;;17.25;17.00;;;;;23.88;59.45;101254.00;2103857;27;47788;-61
2022/07/23 04:24:50;;;;;;;;;14.50;13.25;;;;;23.89;59.38;101250.34;2119281;27;48045;-61
2022/07/23 04:25:50;;;;;;;;;22.75;20.00;;;;;23.88;59.27;101251.28;2120955;27;47550;-63
2022/07/23 04:26:50;;;;;;;;;18.00;18.00;;;;;23.88;59.27;101254.00;2116804;27;47239;-63
2022/07/23 04:27:51;;;;;;;;;21.25;19.25;;;;;23.88;59.27;101267.56;2118423;27;47937;-62
2022/07/23 04:28:51;;;;;;;;;18.25;17.75;;;;;23.88;59.33;101262.13;2121226;27;47578;-61
2022/07/23 04:29:52;;;;;;;;;21.50;19.50;;;;;23.87;59.28;101257.69;2121877;27;47535;-62
2022/07/23 04:30:52;;;;;;;;;20.75;19.75;;;;;23.87;59.33;101254.97;2120375;27;47196;-61
2022/07/23 04:31:52;;;;;;;;;16.00;15.50;;;;;23.86;59.20;101256.81;2121584;27;47815;-59
2022/07/23 04:32:53;;;;;;;;;16.00;16.00;;;;;23.86;59.05;101262.25;2093763;28;45245;-62
2022/07/23 04:33:53;;;;;;;;;22.25;22.25;;;;;23.85;59.21;101262.34;2086523;28;47889;-61
2022/07/23 04:34:53;;;;;;;;;21.50;19.75;;;;;23.85;59.33;101262.34;2112088;27;47455;-62
2022/07/23 04:35:54;;;;;;;;;17.25;17.25;;;;;23.84;59.22;101266.91;2120856;27;48159;-62